createdAt,value
2018-12-20T00:01:40.046Z,18.62
2018-12-20T00:04:10.711Z,18.45
2018-12-20T00:06:41.420Z,19.82
2018-12-20T00:09:10.104Z,17.97
2018-12-20T00:11:39.780Z,19.40
2018-12-20T00:14:09.676Z,20.83
2018-12-20T00:16:38.537Z,18.55
2018-12-20T00:19:07.405Z,17.53
2018-12-20T00:21:36.957Z,18.47
2018-12-20T00:24:06.059Z,18.47
2018-12-20T00:26:35.411Z,19.63
2018-12-20T00:29:04.440Z,18.57
2018-12-20T00:31:34.293Z,18.80
2018-12-20T00:34:03.208Z,18.77
2018-12-20T00:36:33.764Z,18.90
2018-12-20T00:39:04.327Z,20.57
2018-12-20T00:41:33.739Z,19.37
2018-12-20T00:44:02.605Z,18.57
2018-12-20T00:46:33.646Z,19.63
2018-12-20T00:49:03.108Z,21.17
2018-12-20T00:51:31.899Z,19.17
2018-12-20T00:54:00.695Z,19.93
2018-12-20T00:56:29.514Z,18.93
2018-12-20T00:58:58.317Z,22.13
2018-12-20T01:01:29.367Z,19.87
2018-12-20T01:03:59.739Z,19.07
2018-12-20T01:06:29.415Z,19.67
2018-12-20T01:08:59.046Z,21.47
2018-12-20T01:11:27.840Z,17.23
2018-12-20T01:13:57.371Z,19.37
2018-12-20T01:16:27.823Z,21.70
2018-12-20T01:18:58.399Z,20.75
2018-12-20T01:21:27.098Z,20.60
2018-12-20T01:23:56.186Z,20.83
2018-12-20T01:26:25.953Z,20.10
2018-12-20T01:28:55.529Z,20.63
2018-12-20T01:31:25.807Z,21.40
2018-12-20T01:33:55.352Z,19.47
2018-12-20T01:36:24.954Z,21.20
2018-12-20T01:38:55.093Z,23.15
2018-12-20T01:41:24.460Z,21.20
2018-12-20T01:43:53.716Z,19.80
2018-12-20T01:46:23.398Z,20.57
2018-12-20T01:48:53.054Z,19.67
2018-12-20T01:51:21.893Z,22.13
2018-12-20T01:53:51.211Z,19.53
2018-12-20T01:56:20.071Z,22.03
2018-12-20T01:58:49.277Z,20.80
2018-12-20T02:01:18.019Z,20.32
2018-12-20T02:03:48.400Z,22.57
2018-12-20T02:06:17.672Z,20.40
2018-12-20T02:08:47.234Z,21.17
2018-12-20T02:11:16.218Z,20.88
2018-12-20T02:13:45.196Z,21.87
2018-12-20T02:16:14.217Z,20.07
2018-12-20T02:18:44.963Z,21.70
2018-12-20T02:21:13.884Z,21.57
2018-12-20T02:23:43.524Z,21.97
2018-12-20T02:26:12.742Z,22.50
2018-12-20T02:28:43.297Z,20.33
2018-12-20T02:31:12.169Z,22.80
2018-12-20T02:33:41.177Z,19.97
2018-12-20T02:36:10.417Z,22.83
2018-12-20T02:38:40.675Z,23.93
2018-12-20T02:41:10.600Z,22.02
2018-12-20T02:43:41.182Z,21.48
2018-12-20T02:46:11.250Z,23.70
2018-12-20T02:48:40.448Z,23.83
2018-12-20T02:51:10.913Z,24.50
2018-12-20T02:53:41.488Z,25.80
2018-12-20T02:56:11.849Z,21.97
2018-12-20T02:58:41.140Z,22.43
2018-12-20T03:01:10.857Z,23.13
2018-12-20T03:03:40.564Z,22.07
2018-12-20T03:06:09.785Z,24.53
2018-12-20T03:08:39.688Z,25.77
2018-12-20T03:11:10.393Z,24.60
2018-12-20T03:13:40.176Z,22.13
2018-12-20T03:16:09.846Z,24.13
2018-12-20T03:18:38.924Z,27.23
2018-12-20T03:21:07.929Z,24.40
2018-12-20T03:23:37.170Z,24.40
2018-12-20T03:26:05.970Z,27.30
2018-12-20T03:28:34.743Z,25.05
2018-12-20T03:31:03.834Z,26.67
2018-12-20T03:33:32.665Z,23.87
2018-12-20T03:36:01.486Z,27.40
2018-12-20T03:38:30.620Z,26.40
2018-12-20T03:40:59.533Z,24.23
2018-12-20T03:43:28.462Z,25.73
2018-12-20T03:45:57.422Z,24.87
2018-12-20T03:48:26.451Z,24.20
2018-12-20T03:50:55.490Z,27.47
2018-12-20T03:53:25.299Z,25.03
2018-12-20T03:55:54.033Z,25.17
2018-12-20T03:58:23.140Z,25.10
2018-12-20T04:00:52.050Z,27.23
2018-12-20T04:03:20.819Z,26.85
2018-12-20T04:05:49.513Z,26.45
2018-12-20T04:08:18.395Z,24.33
2018-12-20T04:10:47.509Z,26.33
2018-12-20T04:13:16.492Z,26.40
2018-12-20T04:15:45.665Z,27.95
2018-12-20T04:18:14.761Z,25.50
2018-12-20T04:20:43.602Z,27.17
2018-12-20T04:23:13.337Z,28.37
2018-12-20T04:25:42.817Z,26.13
2018-12-20T04:28:11.951Z,27.10
2018-12-20T04:30:41.365Z,25.77
2018-12-20T04:33:10.483Z,27.33
2018-12-20T04:35:41.070Z,26.75
2018-12-20T04:38:10.212Z,26.57
2018-12-20T04:40:39.942Z,26.70
2018-12-20T04:43:09.759Z,27.32
2018-12-20T04:45:46.433Z,28.70
2018-12-20T04:48:09.819Z,26.70
2018-12-20T04:50:38.655Z,26.77
2018-12-20T04:53:07.474Z,26.93
2018-12-20T04:55:36.237Z,28.00
2018-12-20T04:58:05.489Z,33.07
2018-12-20T05:00:34.753Z,26.60
2018-12-20T05:03:03.614Z,24.53
2018-12-20T05:05:32.559Z,30.70
2018-12-20T05:08:02.278Z,26.77
2018-12-20T05:10:31.392Z,29.93
2018-12-20T05:13:00.394Z,27.20
2018-12-20T05:15:29.824Z,26.53
2018-12-20T05:17:58.805Z,24.33
2018-12-20T05:20:27.899Z,26.17
2018-12-20T05:22:56.872Z,28.85
2018-12-20T05:25:25.585Z,29.70
2018-12-20T05:27:54.344Z,28.23
2018-12-20T05:30:23.135Z,28.25
2018-12-20T05:32:51.835Z,28.83
2018-12-20T05:35:20.985Z,30.70
2018-12-20T05:37:50.457Z,27.95
2018-12-20T05:40:19.326Z,28.73
2018-12-20T05:42:48.265Z,28.07
2018-12-20T05:45:17.059Z,29.03
2018-12-20T05:47:45.921Z,29.67
2018-12-20T05:50:14.692Z,29.97
2018-12-20T05:52:43.413Z,27.40
2018-12-20T05:55:12.293Z,30.27
2018-12-20T05:57:41.168Z,25.93
2018-12-20T06:00:10.574Z,31.85
2018-12-20T06:02:40.111Z,28.98
2018-12-20T06:05:08.866Z,32.63
2018-12-20T06:07:38.539Z,30.10
2018-12-20T06:10:10.985Z,28.67
2018-12-20T06:15:26.152Z,29.37
2018-12-20T06:17:55.218Z,28.17
2018-12-20T06:20:24.762Z,29.30
2018-12-20T06:22:53.643Z,29.97
2018-12-20T06:25:23.277Z,27.87
2018-12-20T06:27:52.088Z,27.98
2018-12-20T06:30:20.845Z,29.07
2018-12-20T06:32:50.048Z,32.47
2018-12-20T06:35:19.551Z,30.23
2018-12-20T06:37:48.285Z,30.87
2018-12-20T06:40:18.405Z,29.10
2018-12-20T06:42:47.181Z,29.43
2018-12-20T06:45:16.147Z,29.50
2018-12-20T06:47:45.823Z,31.27
2018-12-20T06:50:14.572Z,29.37
2018-12-20T06:52:43.989Z,31.60
2018-12-20T06:55:12.929Z,32.97
2018-12-20T06:57:43.605Z,30.93
2018-12-20T07:00:12.564Z,37.40
2018-12-20T07:02:41.448Z,32.43
2018-12-20T07:05:10.662Z,31.13
2018-12-20T07:07:40.027Z,29.10
2018-12-20T07:10:09.652Z,30.00
2018-12-20T07:12:40.486Z,31.37
2018-12-20T07:15:11.588Z,32.38
2018-12-20T07:17:40.398Z,29.47
2018-12-20T07:20:10.134Z,29.20
2018-12-20T07:22:39.054Z,30.90
2018-12-20T07:25:07.792Z,29.17
2018-12-20T07:27:36.505Z,29.20
2018-12-20T07:30:06.929Z,32.20
2018-12-20T07:32:35.615Z,30.67
2018-12-20T07:35:04.917Z,31.83
2018-12-20T07:37:33.832Z,32.57
2018-12-20T07:40:03.695Z,31.73
2018-12-20T07:42:32.407Z,30.40
2018-12-20T07:45:01.448Z,32.47
2018-12-20T07:47:30.274Z,34.43
2018-12-20T07:49:59.003Z,30.70
2018-12-20T07:52:28.039Z,30.70
2018-12-20T07:54:56.916Z,30.47
2018-12-20T07:57:25.756Z,33.27
2018-12-20T07:59:55.056Z,29.37
2018-12-20T08:02:23.884Z,29.35
2018-12-20T08:04:55.737Z,30.75
2018-12-20T08:07:25.414Z,32.70
2018-12-20T08:09:56.490Z,35.48
2018-12-20T08:12:26.350Z,31.62
2018-12-20T08:14:56.921Z,32.40
2018-12-20T08:17:27.201Z,32.93
2018-12-20T08:19:56.949Z,32.93
2018-12-20T08:22:25.718Z,32.60
2018-12-20T08:24:55.078Z,33.37
2018-12-20T08:27:23.870Z,33.43
2018-12-20T08:29:53.151Z,31.53
2018-12-20T08:32:23.140Z,35.57
2018-12-20T08:34:52.307Z,33.23
2018-12-20T08:37:20.997Z,32.28
2018-12-20T08:39:51.555Z,35.70
2018-12-20T08:42:21.126Z,31.70
2018-12-20T08:44:50.506Z,32.55
2018-12-20T08:47:19.223Z,33.38
2018-12-20T08:49:47.941Z,31.40
2018-12-20T08:52:16.720Z,30.50
2018-12-20T08:54:45.745Z,30.92
2018-12-20T08:57:14.477Z,34.03
2018-12-20T08:59:43.160Z,30.77
2018-12-20T09:02:12.155Z,28.90
2018-12-20T09:04:40.967Z,32.80
2018-12-20T09:07:10.077Z,31.90
2018-12-20T09:09:38.999Z,32.77
2018-12-20T09:12:07.774Z,32.63
2018-12-20T09:14:36.471Z,31.57
2018-12-20T09:17:05.295Z,30.17
2018-12-20T09:19:34.935Z,29.40
2018-12-20T09:22:03.685Z,33.90
2018-12-20T09:24:32.848Z,28.33
2018-12-20T09:27:01.674Z,35.03
2018-12-20T09:29:30.502Z,33.40
2018-12-20T09:31:59.746Z,33.73
2018-12-20T09:34:29.724Z,32.13
2018-12-20T09:36:58.388Z,32.47
2018-12-20T09:39:27.403Z,30.45
2018-12-20T09:41:57.113Z,30.60
2018-12-20T09:44:25.819Z,32.43
2018-12-20T09:46:58.786Z,29.40
2018-12-20T09:49:28.050Z,31.20
2018-12-20T09:51:56.768Z,30.02
2018-12-20T09:54:26.855Z,29.47
2018-12-20T09:56:56.071Z,39.27
2018-12-20T09:59:24.904Z,33.43
2018-12-20T10:01:54.914Z,32.10
2018-12-20T10:04:24.793Z,34.03
2018-12-20T10:06:53.540Z,35.17
2018-12-20T10:09:23.183Z,33.10
2018-12-20T10:11:54.082Z,33.90
2018-12-20T10:14:24.731Z,31.13
2018-12-20T10:16:54.292Z,31.03
2018-12-20T10:19:23.792Z,33.67
2018-12-20T10:21:53.232Z,30.37
2018-12-20T10:24:22.590Z,31.50
2018-12-20T10:26:52.037Z,33.67
2018-12-20T10:29:21.310Z,29.47
2018-12-20T10:31:51.431Z,34.45
2018-12-20T10:34:20.303Z,31.55
2018-12-20T10:36:50.338Z,30.40
2018-12-20T10:39:20.382Z,30.60
2018-12-20T10:41:50.348Z,32.30
2018-12-20T10:44:20.773Z,31.80
2018-12-20T10:46:49.597Z,30.27
2018-12-20T10:49:19.507Z,28.63
2018-12-20T10:51:48.641Z,31.33
2018-12-20T10:54:17.359Z,30.60
2018-12-20T10:56:46.103Z,30.70
2018-12-20T10:59:15.557Z,29.23
2018-12-20T11:01:49.272Z,32.60
2018-12-20T11:04:22.717Z,27.73
2018-12-20T11:06:57.705Z,31.60
2018-12-20T11:09:31.667Z,32.80
2018-12-20T11:12:05.654Z,29.87
2018-12-20T11:14:34.474Z,31.03
2018-12-20T11:17:03.229Z,30.37
2018-12-20T11:19:31.969Z,32.13
2018-12-20T11:22:00.943Z,32.80
2018-12-20T11:24:29.708Z,32.03
2018-12-20T11:26:58.519Z,31.13
2018-12-20T11:29:27.660Z,29.48
2018-12-20T11:31:56.406Z,29.63
2018-12-20T11:34:25.065Z,31.27
2018-12-20T11:36:54.218Z,31.75
2018-12-20T11:39:23.043Z,30.20
2018-12-20T11:41:53.199Z,31.62
2018-12-20T11:44:22.321Z,30.32
2018-12-20T11:46:51.145Z,31.25
2018-12-20T11:49:19.903Z,32.97
2018-12-20T11:51:48.693Z,30.63
2018-12-20T11:54:17.423Z,30.55
2018-12-20T11:56:46.141Z,28.90
2018-12-20T11:59:15.158Z,29.48
2018-12-20T12:01:43.999Z,30.40
2018-12-20T12:04:12.807Z,31.70
2018-12-20T12:06:41.833Z,29.90
2018-12-20T12:09:11.231Z,33.63
2018-12-20T12:11:40.384Z,30.23
2018-12-20T12:14:09.237Z,28.77
2018-12-20T12:16:37.975Z,28.40
2018-12-20T12:19:06.695Z,28.80
2018-12-20T12:21:35.488Z,30.80
2018-12-20T12:24:04.350Z,31.70
2018-12-20T12:26:33.033Z,28.10
2018-12-20T12:29:01.949Z,28.90
2018-12-20T12:31:30.740Z,32.23
2018-12-20T12:33:59.597Z,31.33
2018-12-20T12:36:29.237Z,31.50
2018-12-20T12:38:58.576Z,29.77
2018-12-20T12:41:28.523Z,28.90
2018-12-20T12:43:57.380Z,32.70
2018-12-20T12:46:26.909Z,31.15
2018-12-20T12:48:55.628Z,28.67
2018-12-20T12:51:24.492Z,30.17
2018-12-20T12:53:53.896Z,29.00
2018-12-20T12:56:22.554Z,29.80
2018-12-20T12:58:51.977Z,30.12
2018-12-20T13:01:20.647Z,28.23
2018-12-20T13:03:49.322Z,51.73
2018-12-20T13:06:18.155Z,33.73
2018-12-20T13:08:46.927Z,30.20
2018-12-20T13:11:15.734Z,28.07
2018-12-20T13:13:45.377Z,28.93
2018-12-20T13:16:16.366Z,27.57
2018-12-20T13:18:46.845Z,27.70
2018-12-20T13:21:15.485Z,26.00
2018-12-20T13:23:44.217Z,27.83
2018-12-20T13:26:13.005Z,26.90
2018-12-20T13:28:41.752Z,36.73
2018-12-20T13:31:10.562Z,32.27
2018-12-20T13:33:39.340Z,28.30
2018-12-20T13:36:08.671Z,29.83
2018-12-20T13:38:37.416Z,26.15
2018-12-20T13:41:06.347Z,28.90
2018-12-20T13:43:35.143Z,27.60
2018-12-20T13:46:04.031Z,24.67
2018-12-20T13:48:33.132Z,29.00
2018-12-20T13:51:03.860Z,25.80
2018-12-20T13:53:32.649Z,26.20
2018-12-20T13:56:01.435Z,25.15
2018-12-20T13:58:30.218Z,24.53
2018-12-20T14:00:59.523Z,27.20
2018-12-20T14:03:28.312Z,25.10
2018-12-20T14:05:57.073Z,28.30
2018-12-20T14:08:25.892Z,28.40
2018-12-20T14:10:56.078Z,24.57
2018-12-20T14:13:24.926Z,24.23
2018-12-20T14:15:54.304Z,28.87
2018-12-20T14:18:30.812Z,26.33
2018-12-20T14:20:55.359Z,26.37
2018-12-20T14:23:24.272Z,25.57
2018-12-20T14:25:53.252Z,30.15
2018-12-20T14:28:22.004Z,26.03
2018-12-20T14:30:51.009Z,26.80
2018-12-20T14:33:20.322Z,28.63
2018-12-20T14:35:49.106Z,34.45
2018-12-20T14:38:17.854Z,27.15
2018-12-20T14:40:46.688Z,24.18
2018-12-20T14:43:15.471Z,24.67
2018-12-20T14:45:44.157Z,26.33
2018-12-20T14:48:17.628Z,27.27
2018-12-20T14:50:46.313Z,26.57
2018-12-20T14:53:15.184Z,24.35
2018-12-20T14:55:44.864Z,27.30
2018-12-20T14:58:14.455Z,26.10
2018-12-20T15:00:43.178Z,25.97
2018-12-20T15:03:12.895Z,27.77
2018-12-20T15:05:42.249Z,30.50
2018-12-20T15:08:11.686Z,29.13
2018-12-20T15:10:40.647Z,25.67
2018-12-20T15:13:09.636Z,29.30
2018-12-20T15:15:39.449Z,25.77
2018-12-20T15:18:08.928Z,27.67
2018-12-20T15:20:40.674Z,28.92
2018-12-20T15:23:09.135Z,27.20
2018-12-20T15:25:37.839Z,27.03
2018-12-20T15:28:06.623Z,29.60
2018-12-20T15:30:35.668Z,35.97
2018-12-20T15:33:05.279Z,29.82
2018-12-20T15:35:34.162Z,28.33
2018-12-20T15:38:03.052Z,26.23
2018-12-20T15:40:31.942Z,26.60
2018-12-20T15:43:00.775Z,31.27
2018-12-20T15:45:29.585Z,34.20
2018-12-20T15:47:58.308Z,26.87
2018-12-20T15:50:27.083Z,30.83
2018-12-20T15:52:56.381Z,32.70
2018-12-20T15:55:25.167Z,32.35
2018-12-20T15:57:53.978Z,28.13
2018-12-20T16:00:23.531Z,22.07
2018-12-20T16:02:52.284Z,23.93
2018-12-20T16:05:21.101Z,26.25
2018-12-20T16:07:50.911Z,25.40
2018-12-20T16:10:19.699Z,25.27
2018-12-20T16:12:48.384Z,25.80
2018-12-20T16:15:17.729Z,23.17
2018-12-20T16:17:46.623Z,24.43
2018-12-20T16:20:15.335Z,27.48
2018-12-20T16:22:44.247Z,24.67
2018-12-20T16:25:13.120Z,25.33
2018-12-20T16:27:41.844Z,24.47
2018-12-20T16:30:11.764Z,26.37
2018-12-20T16:32:40.654Z,27.97
2018-12-20T16:35:09.736Z,26.40
2018-12-20T16:37:39.926Z,24.82
2018-12-20T16:40:10.325Z,23.73
2018-12-20T16:42:39.096Z,27.87
2018-12-20T16:45:08.971Z,26.00
2018-12-20T16:47:38.769Z,30.93
2018-12-20T16:50:09.751Z,28.73
2018-12-20T16:52:40.082Z,29.87
2018-12-20T16:55:10.078Z,27.53
2018-12-20T16:57:39.491Z,25.27
2018-12-20T17:00:11.490Z,27.83
2018-12-20T17:02:40.641Z,27.25
2018-12-20T17:05:09.364Z,27.03
2018-12-20T17:07:38.153Z,26.33
2018-12-20T17:10:07.950Z,26.37
2018-12-20T17:12:40.777Z,24.35
2018-12-20T17:20:09.162Z,32.23
2018-12-20T17:22:39.083Z,30.90
2018-12-20T17:25:15.702Z,25.37
2018-12-20T17:27:46.227Z,30.77
2018-12-20T17:30:16.182Z,28.77
2018-12-20T17:32:47.846Z,26.93
2018-12-20T17:35:18.080Z,25.20
2018-12-20T17:37:46.764Z,26.53
2018-12-20T17:40:15.542Z,27.70
2018-12-20T17:42:44.296Z,28.80
2018-12-20T17:45:13.226Z,25.03
2018-12-20T17:47:42.195Z,25.53
2018-12-20T17:50:11.379Z,25.37
2018-12-20T17:52:40.777Z,26.50
2018-12-20T17:55:09.606Z,27.27
2018-12-20T17:57:38.538Z,24.57
2018-12-20T18:00:09.503Z,24.57
2018-12-20T18:02:38.588Z,25.60
2018-12-20T18:05:07.487Z,23.73
2018-12-20T18:07:37.013Z,25.80
2018-12-20T18:10:09.367Z,30.97
2018-12-20T18:12:38.156Z,27.97
2018-12-20T18:15:09.939Z,27.70
2018-12-20T18:17:39.434Z,27.30
2018-12-20T18:20:10.759Z,26.93
2018-12-20T18:22:40.717Z,34.50
2018-12-20T18:25:12.100Z,31.00
2018-12-20T18:27:41.520Z,23.93
2018-12-20T18:30:11.992Z,28.77
2018-12-20T18:32:40.778Z,28.77
2018-12-20T18:35:09.768Z,27.67
2018-12-20T18:37:38.457Z,27.83
2018-12-20T18:40:09.504Z,25.53
2018-12-20T18:42:38.552Z,23.07
2018-12-20T18:45:08.298Z,23.27
2018-12-20T18:47:37.048Z,24.17
2018-12-20T18:50:07.009Z,23.07
2018-12-20T18:52:35.864Z,22.17
2018-12-20T18:55:04.784Z,21.70
2018-12-20T18:57:33.782Z,20.88
2018-12-20T19:00:02.700Z,20.17
2018-12-20T19:02:31.512Z,20.37
2018-12-20T19:05:00.212Z,20.93
2018-12-20T19:07:29.044Z,21.73
2018-12-20T19:09:57.834Z,22.95
2018-12-20T19:12:26.871Z,21.77
2018-12-20T19:14:55.568Z,22.77
2018-12-20T19:17:24.299Z,22.82
2018-12-20T19:19:56.373Z,20.30
2018-12-20T19:22:24.176Z,21.02
2018-12-20T19:24:52.932Z,20.57
2018-12-20T19:27:22.040Z,22.40
2018-12-20T19:29:50.993Z,22.98
2018-12-20T19:32:19.760Z,21.07
2018-12-20T19:34:49.380Z,22.50
2018-12-20T19:37:18.061Z,25.43
2018-12-20T19:39:48.426Z,22.73
2018-12-20T19:42:17.170Z,21.20
2018-12-20T19:44:45.835Z,19.47
2018-12-20T19:47:14.524Z,20.33
2018-12-20T19:49:43.244Z,19.60
2018-12-20T19:52:11.993Z,22.13
2018-12-20T19:54:47.870Z,20.88
2018-12-20T19:57:11.823Z,21.17
2018-12-20T19:59:40.745Z,20.30
2018-12-20T20:02:09.474Z,22.13
2018-12-20T20:04:38.263Z,20.17
2018-12-20T20:07:07.110Z,19.90
2018-12-20T20:09:36.717Z,19.03
2018-12-20T20:12:05.713Z,17.73
2018-12-20T20:14:34.476Z,19.40
2018-12-20T20:17:03.257Z,17.63
2018-12-20T20:19:32.116Z,19.27
2018-12-20T20:22:00.895Z,19.47
2018-12-20T20:24:29.900Z,27.37
2018-12-20T20:26:59.192Z,23.17
2018-12-20T20:29:29.188Z,19.63
2018-12-20T20:31:57.976Z,17.25
2018-12-20T20:34:26.764Z,19.73
2018-12-20T20:36:55.474Z,15.85
2018-12-20T20:39:25.159Z,18.60
2018-12-20T20:41:54.799Z,17.02
2018-12-20T20:44:23.568Z,17.20
2018-12-20T20:46:54.924Z,17.92
2018-12-20T20:49:23.700Z,15.17
2018-12-20T20:51:52.719Z,18.83
2018-12-20T20:54:25.770Z,17.05
2018-12-20T20:56:54.775Z,17.47
2018-12-20T20:59:24.150Z,16.97
2018-12-20T21:01:53.038Z,15.35
2018-12-20T21:04:22.058Z,17.23
2018-12-20T21:06:51.043Z,16.00
2018-12-20T21:09:21.213Z,16.57
2018-12-20T21:11:50.038Z,16.77
2018-12-20T21:14:19.860Z,15.80
2018-12-20T21:16:48.729Z,14.87
2018-12-20T21:19:17.488Z,16.47
2018-12-20T21:21:46.234Z,14.27
2018-12-20T21:24:18.572Z,19.50
2018-12-20T21:26:47.385Z,14.50
2018-12-20T21:29:16.271Z,17.67
2018-12-20T21:31:45.147Z,15.88
2018-12-20T21:34:13.987Z,17.83
2018-12-20T21:36:42.732Z,18.80
2018-12-20T21:39:11.488Z,20.23
2018-12-20T21:41:40.820Z,16.07
2018-12-20T21:44:09.626Z,16.87
2018-12-20T21:46:38.496Z,15.67
2018-12-20T21:49:07.358Z,14.70
2018-12-20T21:51:37.645Z,15.23
2018-12-20T21:54:06.655Z,16.47
2018-12-20T21:56:35.408Z,18.43
2018-12-20T21:59:04.152Z,16.57
2018-12-20T22:01:33.414Z,17.43
2018-12-20T22:04:09.333Z,16.30
2018-12-20T22:06:38.536Z,16.47
2018-12-20T22:09:08.149Z,15.23
2018-12-20T22:11:37.175Z,16.12
2018-12-20T22:14:06.092Z,15.83
2018-12-20T22:16:34.916Z,18.37
2018-12-20T22:19:03.773Z,16.23
2018-12-20T22:21:33.731Z,15.53
2018-12-20T22:24:02.848Z,14.90
2018-12-20T22:26:32.323Z,14.57
2018-12-20T22:29:01.136Z,14.20
2018-12-20T22:31:29.896Z,13.70
2018-12-20T22:33:58.668Z,14.50
2018-12-20T22:36:27.543Z,14.28
2018-12-20T22:38:56.919Z,15.87
2018-12-20T22:41:25.672Z,14.83
2018-12-20T22:43:54.565Z,13.78
2018-12-20T22:46:23.324Z,16.25
2018-12-20T22:48:52.035Z,14.23
2018-12-20T22:51:20.866Z,16.03
2018-12-20T22:53:49.562Z,15.30
2018-12-20T22:56:18.291Z,15.03
2018-12-20T22:58:47.143Z,14.43
2018-12-20T23:01:15.776Z,16.05
2018-12-20T23:03:44.454Z,16.23
2018-12-20T23:06:13.605Z,14.37
2018-12-20T23:08:42.311Z,15.57
2018-12-20T23:11:10.958Z,14.77
2018-12-20T23:13:39.851Z,15.43
2018-12-20T23:16:08.663Z,16.57
2018-12-20T23:18:37.595Z,14.67
2018-12-20T23:21:06.428Z,17.47
2018-12-20T23:23:35.176Z,16.17
2018-12-20T23:26:03.865Z,15.87
2018-12-20T23:28:32.794Z,16.17
2018-12-20T23:31:01.715Z,16.37
2018-12-20T23:33:30.944Z,15.47
2018-12-20T23:35:59.761Z,16.97
2018-12-20T23:38:28.573Z,16.07
2018-12-20T23:40:57.278Z,17.00
2018-12-20T23:43:26.279Z,16.95
2018-12-20T23:45:54.939Z,17.40
2018-12-20T23:48:23.603Z,16.87
2018-12-20T23:50:52.319Z,17.17
2018-12-20T23:53:21.050Z,16.52
2018-12-20T23:55:49.731Z,19.15
2018-12-20T23:58:18.444Z,17.60
